sensor_id;sensor_type;location;lat;lon;timestamp;pressure;altitude;pressure_sealevel;temperature;humidity
34374;BME280;20637;55.770;37.592;2023-04-25T00:01:23;99490.72;;;15.95;37.17
34374;BME280;20637;55.770;37.592;2023-04-25T00:03:49;99498.47;;;15.98;36.98
34374;BME280;20637;55.770;37.592;2023-04-25T00:06:14;99500.75;;;16.01;36.87
34374;BME280;20637;55.770;37.592;2023-04-25T00:08:40;99489.69;;;16.02;36.77
34374;BME280;20637;55.770;37.592;2023-04-25T00:11:05;99490.91;;;16.06;37.36
34374;BME280;20637;55.770;37.592;2023-04-25T00:13:31;99491.97;;;16.05;36.95
34374;BME280;20637;55.770;37.592;2023-04-25T00:15:56;99500.75;;;16.07;37.60
34374;BME280;20637;55.770;37.592;2023-04-25T00:18:23;99491.97;;;16.05;37.23
34374;BME280;20637;55.770;37.592;2023-04-25T00:20:48;99496.78;;;16.03;37.02
34374;BME280;20637;55.770;37.592;2023-04-25T00:23:15;99497.84;;;16.02;36.91
34374;BME280;20637;55.770;37.592;2023-04-25T00:25:43;99505.16;;;16.02;37.97
34374;BME280;20637;55.770;37.592;2023-04-25T00:28:08;99500.53;;;15.96;38.95
34374;BME280;20637;55.770;37.592;2023-04-25T00:30:34;99504.06;;;15.83;39.46
34374;BME280;20637;55.770;37.592;2023-04-25T00:32:59;99515.94;;;15.69;41.16
34374;BME280;20637;55.770;37.592;2023-04-25T00:35:25;99507.94;;;15.54;42.31
34374;BME280;20637;55.770;37.592;2023-04-25T00:37:50;99509.94;;;15.39;44.25
34374;BME280;20637;55.770;37.592;2023-04-25T00:40:16;99505.47;;;15.25;44.36
34374;BME280;20637;55.770;37.592;2023-04-25T00:42:41;99507.94;;;15.20;44.33
34374;BME280;20637;55.770;37.592;2023-04-25T00:45:07;99513.16;;;15.15;44.31
34374;BME280;20637;55.770;37.592;2023-04-25T00:47:34;99509.16;;;15.11;44.75
34374;BME280;20637;55.770;37.592;2023-04-25T00:50:00;99494.97;;;15.15;43.87
34374;BME280;20637;55.770;37.592;2023-04-25T00:52:26;99474.91;;;15.23;43.40
34374;BME280;20637;55.770;37.592;2023-04-25T00:54:52;99473.50;;;15.34;42.96
34374;BME280;20637;55.770;37.592;2023-04-25T00:57:17;99474.81;;;15.44;42.00
34374;BME280;20637;55.770;37.592;2023-04-25T00:59:44;99487.44;;;15.58;41.84
34374;BME280;20637;55.770;37.592;2023-04-25T01:02:10;99497.75;;;15.69;41.46
34374;BME280;20637;55.770;37.592;2023-04-25T01:04:36;99499.19;;;15.72;41.83
34374;BME280;20637;55.770;37.592;2023-04-25T01:07:02;99484.13;;;15.63;41.46
34374;BME280;20637;55.770;37.592;2023-04-25T01:09:27;99487.03;;;15.55;41.91
34374;BME280;20637;55.770;37.592;2023-04-25T01:11:55;99496.16;;;15.47;41.74
34374;BME280;20637;55.770;37.592;2023-04-25T01:14:20;99485.88;;;15.43;41.89
34374;BME280;20637;55.770;37.592;2023-04-25T01:16:46;99488.97;;;15.33;42.05
34374;BME280;20637;55.770;37.592;2023-04-25T01:19:11;99497.75;;;15.29;42.74
34374;BME280;20637;55.770;37.592;2023-04-25T01:21:41;99504.81;;;15.23;43.43
34374;BME280;20637;55.770;37.592;2023-04-25T01:24:06;99493.50;;;15.19;43.51
34374;BME280;20637;55.770;37.592;2023-04-25T01:26:32;99493.94;;;15.16;43.64
34374;BME280;20637;55.770;37.592;2023-04-25T01:28:58;99490.19;;;15.17;44.11
34374;BME280;20637;55.770;37.592;2023-04-25T01:31:25;99492.69;;;15.19;44.08
34374;BME280;20637;55.770;37.592;2023-04-25T01:33:52;99481.19;;;15.17;44.45
34374;BME280;20637;55.770;37.592;2023-04-25T01:36:17;99483.91;;;15.17;43.72
34374;BME280;20637;55.770;37.592;2023-04-25T01:38:43;99478.47;;;15.17;43.99
34374;BME280;20637;55.770;37.592;2023-04-25T01:41:09;99467.34;;;15.18;43.62
34374;BME280;20637;55.770;37.592;2023-04-25T01:43:34;99480.34;;;15.23;44.07
34374;BME280;20637;55.770;37.592;2023-04-25T01:46:00;99464.69;;;15.25;43.78
34374;BME280;20637;55.770;37.592;2023-04-25T01:48:26;99466.16;;;15.27;43.71
34374;BME280;20637;55.770;37.592;2023-04-25T01:50:51;99473.91;;;15.31;44.01
34374;BME280;20637;55.770;37.592;2023-04-25T01:53:17;99476.22;;;15.34;44.23
34374;BME280;20637;55.770;37.592;2023-04-25T01:55:44;99473.31;;;15.35;43.98
34374;BME280;20637;55.770;37.592;2023-04-25T01:58:13;99473.72;;;15.39;43.86
34374;BME280;20637;55.770;37.592;2023-04-25T02:00:57;99477.28;;;15.39;43.98
34374;BME280;20637;55.770;37.592;2023-04-25T02:03:26;99468.09;;;15.40;43.64
34374;BME280;20637;55.770;37.592;2023-04-25T02:05:52;99468.94;;;15.41;43.91
34374;BME280;20637;55.770;37.592;2023-04-25T02:08:18;99469.75;;;15.41;43.86
34374;BME280;20637;55.770;37.592;2023-04-25T02:10:44;99465.16;;;15.42;43.57
34374;BME280;20637;55.770;37.592;2023-04-25T02:13:32;99453.88;;;15.45;43.61
34374;BME280;20637;55.770;37.592;2023-04-25T02:16:18;99454.94;;;15.44;43.61
34374;BME280;20637;55.770;37.592;2023-04-25T02:18:43;99450.34;;;15.44;43.18
34374;BME280;20637;55.770;37.592;2023-04-25T02:21:10;99450.94;;;15.40;43.24
34374;BME280;20637;55.770;37.592;2023-04-25T02:23:36;99451.97;;;15.39;43.36
34374;BME280;20637;55.770;37.592;2023-04-25T02:26:02;99461.41;;;15.43;43.53
34374;BME280;20637;55.770;37.592;2023-04-25T02:28:28;99453.06;;;15.44;43.53
34374;BME280;20637;55.770;37.592;2023-04-25T02:30:54;99458.09;;;15.47;43.23
34374;BME280;20637;55.770;37.592;2023-04-25T02:33:19;99463.78;;;15.52;43.37
34374;BME280;20637;55.770;37.592;2023-04-25T02:35:46;99459.41;;;15.58;43.43
34374;BME280;20637;55.770;37.592;2023-04-25T02:38:11;99453.53;;;15.54;43.35
34374;BME280;20637;55.770;37.592;2023-04-25T02:40:39;99458.97;;;15.54;43.20
34374;BME280;20637;55.770;37.592;2023-04-25T02:43:04;99451.84;;;15.53;43.31
34374;BME280;20637;55.770;37.592;2023-04-25T02:45:29;99451.44;;;15.56;43.50
34374;BME280;20637;55.770;37.592;2023-04-25T02:47:55;99462.13;;;15.58;43.16
34374;BME280;20637;55.770;37.592;2023-04-25T02:50:20;99457.53;;;15.58;43.24
34374;BME280;20637;55.770;37.592;2023-04-25T02:52:46;99461.28;;;15.57;43.28
34374;BME280;20637;55.770;37.592;2023-04-25T02:55:15;99456.06;;;15.56;43.03
34374;BME280;20637;55.770;37.592;2023-04-25T02:57:42;99458.56;;;15.57;42.94
34374;BME280;20637;55.770;37.592;2023-04-25T03:00:11;99464.22;;;15.56;43.25
34374;BME280;20637;55.770;37.592;2023-04-25T03:02:37;99454.78;;;15.52;43.17
34374;BME280;20637;55.770;37.592;2023-04-25T03:05:02;99465.66;;;15.52;43.23
34374;BME280;20637;55.770;37.592;2023-04-25T03:07:29;99466.50;;;15.52;43.01
34374;BME280;20637;55.770;37.592;2023-04-25T03:09:54;99456.44;;;15.53;43.14
34374;BME280;20637;55.770;37.592;2023-04-25T03:12:22;99459.41;;;15.58;43.01
34374;BME280;20637;55.770;37.592;2023-04-25T03:14:47;99456.91;;;15.63;42.75
34374;BME280;20637;55.770;37.592;2023-04-25T03:17:14;99458.19;;;15.67;42.62
34374;BME280;20637;55.770;37.592;2023-04-25T03:19:39;99469.50;;;15.70;42.88
34374;BME280;20637;55.770;37.592;2023-04-25T03:22:05;99471.19;;;15.71;42.72
34374;BME280;20637;55.770;37.592;2023-04-25T03:24:30;99461.94;;;15.72;42.55
34374;BME280;20637;55.770;37.592;2023-04-25T03:26:57;99469.69;;;15.76;42.59
34374;BME280;20637;55.770;37.592;2023-04-25T03:29:22;99471.19;;;15.78;42.41
34374;BME280;20637;55.770;37.592;2023-04-25T03:31:51;99472.66;;;15.81;42.39
34374;BME280;20637;55.770;37.592;2023-04-25T03:34:16;99473.31;;;15.83;42.61
34374;BME280;20637;55.770;37.592;2023-04-25T03:36:41;99474.94;;;15.84;42.40
34374;BME280;20637;55.770;37.592;2023-04-25T03:39:08;99472.03;;;15.85;42.55
34374;BME280;20637;55.770;37.592;2023-04-25T03:41:35;99478.75;;;15.89;42.45
34374;BME280;20637;55.770;37.592;2023-04-25T03:44:06;99469.13;;;15.93;42.44
34374;BME280;20637;55.770;37.592;2023-04-25T03:46:32;99463.25;;;15.96;42.29
34374;BME280;20637;55.770;37.592;2023-04-25T03:48:57;99475.00;;;15.97;42.63
34374;BME280;20637;55.770;37.592;2023-04-25T03:51:32;99480.84;;;15.94;42.70
34374;BME280;20637;55.770;37.592;2023-04-25T03:53:58;99471.00;;;15.93;42.64
34374;BME280;20637;55.770;37.592;2023-04-25T03:56:29;99470.38;;;15.91;42.66
34374;BME280;20637;55.770;37.592;2023-04-25T03:59:01;99468.69;;;15.90;42.63
34374;BME280;20637;55.770;37.592;2023-04-25T04:01:28;99460.97;;;15.87;42.78
34374;BME280;20637;55.770;37.592;2023-04-25T04:03:54;99461.56;;;15.82;42.92
34374;BME280;20637;55.770;37.592;2023-04-25T04:06:19;99460.72;;;15.75;42.88
34374;BME280;20637;55.770;37.592;2023-04-25T04:08:49;99468.66;;;15.70;43.08
34374;BME280;20637;55.770;37.592;2023-04-25T04:11:14;99472.41;;;15.62;43.21
34374;BME280;20637;55.770;37.592;2023-04-25T04:13:40;99469.88;;;15.61;42.90
34374;BME280;20637;55.770;37.592;2023-04-25T04:16:07;99465.91;;;15.63;43.22
34374;BME280;20637;55.770;37.592;2023-04-25T04:18:33;99464.00;;;15.64;43.39
34374;BME280;20637;55.770;37.592;2023-04-25T04:20:58;99471.78;;;15.67;43.14
34374;BME280;20637;55.770;37.592;2023-04-25T04:23:27;99471.56;;;15.68;43.08
34374;BME280;20637;55.770;37.592;2023-04-25T04:25:53;99468.88;;;15.75;43.05
34374;BME280;20637;55.770;37.592;2023-04-25T04:28:34;99467.44;;;15.79;43.31
34374;BME280;20637;55.770;37.592;2023-04-25T04:31:21;99469.94;;;15.81;43.20
34374;BME280;20637;55.770;37.592;2023-04-25T04:33:47;99475.19;;;15.82;43.11
34374;BME280;20637;55.770;37.592;2023-04-25T04:36:13;99476.03;;;15.83;43.30
34374;BME280;20637;55.770;37.592;2023-04-25T04:38:39;99483.53;;;15.81;44.14
34374;BME280;20637;55.770;37.592;2023-04-25T04:41:16;99470.16;;;15.79;43.75
34374;BME280;20637;55.770;37.592;2023-04-25T04:44:06;99484.56;;;15.80;43.63
34374;BME280;20637;55.770;37.592;2023-04-25T04:46:41;99473.31;;;15.83;43.88
34374;BME280;20637;55.770;37.592;2023-04-25T04:49:28;99474.13;;;15.83;43.92
34374;BME280;20637;55.770;37.592;2023-04-25T04:52:20;99477.06;;;15.82;44.03
34374;BME280;20637;55.770;37.592;2023-04-25T04:55:02;99472.03;;;15.79;44.35
34374;BME280;20637;55.770;37.592;2023-04-25T04:57:47;99465.31;;;15.81;44.52
34374;BME280;20637;55.770;37.592;2023-04-25T05:00:20;99468.91;;;15.82;44.85
34374;BME280;20637;55.770;37.592;2023-04-25T05:03:05;99466.97;;;15.76;44.66
34374;BME280;20637;55.770;37.592;2023-04-25T05:06:03;99462.19;;;15.78;44.61
34374;BME280;20637;55.770;37.592;2023-04-25T05:08:34;99456.97;;;15.83;44.43
34374;BME280;20637;55.770;37.592;2023-04-25T05:11:26;99456.78;;;15.91;44.75
34374;BME280;20637;55.770;37.592;2023-04-25T05:14:02;99463.25;;;15.96;44.56
34374;BME280;20637;55.770;37.592;2023-04-25T05:16:45;99457.41;;;15.93;44.63
34374;BME280;20637;55.770;37.592;2023-04-25T05:19:31;99454.25;;;15.96;44.55
34374;BME280;20637;55.770;37.592;2023-04-25T05:22:19;99454.69;;;15.99;44.25
34374;BME280;20637;55.770;37.592;2023-04-25T05:24:54;99454.28;;;16.09;44.28
34374;BME280;20637;55.770;37.592;2023-04-25T05:27:43;99452.81;;;16.13;44.75
34374;BME280;20637;55.770;37.592;2023-04-25T05:30:27;99457.84;;;16.16;44.18
34374;BME280;20637;55.770;37.592;2023-04-25T05:33:30;99458.69;;;16.23;44.09
34374;BME280;20637;55.770;37.592;2023-04-25T05:35:56;99452.41;;;16.29;44.03
34374;BME280;20637;55.770;37.592;2023-04-25T05:38:23;99451.75;;;16.34;43.94
34374;BME280;20637;55.770;37.592;2023-04-25T05:41:07;99457.22;;;16.40;43.91
34374;BME280;20637;55.770;37.592;2023-04-25T05:44:02;99457.03;;;16.48;43.44
34374;BME280;20637;55.770;37.592;2023-04-25T05:46:33;99456.38;;;16.53;43.47
34374;BME280;20637;55.770;37.592;2023-04-25T05:49:21;99447.78;;;16.56;43.59
34374;BME280;20637;55.770;37.592;2023-04-25T05:51:55;99452.22;;;16.57;43.45
34374;BME280;20637;55.770;37.592;2023-04-25T05:54:41;99445.09;;;16.62;43.43
34374;BME280;20637;55.770;37.592;2023-04-25T05:57:06;99443.81;;;16.72;43.28
34374;BME280;20637;55.770;37.592;2023-04-25T05:59:32;99448.81;;;16.81;43.25
34374;BME280;20637;55.770;37.592;2023-04-25T06:01:57;99446.06;;;16.88;42.92
34374;BME280;20637;55.770;37.592;2023-04-25T06:04:23;99442.50;;;16.94;42.87
34374;BME280;20637;55.770;37.592;2023-04-25T06:06:49;99445.22;;;17.00;42.84
34374;BME280;20637;55.770;37.592;2023-04-25T06:09:14;99434.50;;;17.05;43.11
34374;BME280;20637;55.770;37.592;2023-04-25T06:11:40;99424.63;;;17.11;42.85
34374;BME280;20637;55.770;37.592;2023-04-25T06:14:05;99425.03;;;17.14;42.59
34374;BME280;20637;55.770;37.592;2023-04-25T06:16:33;99429.63;;;17.21;42.41
34374;BME280;20637;55.770;37.592;2023-04-25T06:18:59;99427.50;;;17.23;42.50
34374;BME280;20637;55.770;37.592;2023-04-25T06:21:24;99416.59;;;17.23;42.16
34374;BME280;20637;55.770;37.592;2023-04-25T06:23:50;99412.63;;;17.25;42.16
34374;BME280;20637;55.770;37.592;2023-04-25T06:26:20;99419.94;;;17.31;41.99
34374;BME280;20637;55.770;37.592;2023-04-25T06:28:46;99413.81;;;17.36;41.84
34374;BME280;20637;55.770;37.592;2023-04-25T06:31:12;99412.78;;;17.37;41.93
34374;BME280;20637;55.770;37.592;2023-04-25T06:33:39;99399.31;;;17.42;41.48
34374;BME280;20637;55.770;37.592;2023-04-25T06:36:05;99405.78;;;17.47;41.36
34374;BME280;20637;55.770;37.592;2023-04-25T06:38:31;99406.19;;;17.51;41.43
34374;BME280;20637;55.770;37.592;2023-04-25T06:40:57;99408.06;;;17.50;41.44
34374;BME280;20637;55.770;37.592;2023-04-25T06:43:23;99409.56;;;17.53;40.63
34374;BME280;20637;55.770;37.592;2023-04-25T06:45:49;99406.41;;;17.49;40.66
34374;BME280;20637;55.770;37.592;2023-04-25T06:48:15;99410.66;;;17.45;40.86
34374;BME280;20637;55.770;37.592;2023-04-25T06:50:41;99411.44;;;17.46;40.92
34374;BME280;20637;55.770;37.592;2023-04-25T06:53:06;99416.25;;;17.50;40.65
34374;BME280;20637;55.770;37.592;2023-04-25T06:55:35;99407.84;;;17.58;40.10
34374;BME280;20637;55.770;37.592;2023-04-25T06:58:18;99407.59;;;17.67;40.24
34374;BME280;20637;55.770;37.592;2023-04-25T07:01:05;99398.09;;;17.76;40.36
34374;BME280;20637;55.770;37.592;2023-04-25T07:03:30;99414.22;;;17.84;39.88
34374;BME280;20637;55.770;37.592;2023-04-25T07:06:00;99406.84;;;17.84;39.82
34374;BME280;20637;55.770;37.592;2023-04-25T07:08:25;99407.28;;;17.88;40.23
34374;BME280;20637;55.770;37.592;2023-04-25T07:10:51;99404.47;;;17.94;40.19
34374;BME280;20637;55.770;37.592;2023-04-25T07:13:16;99411.13;;;18.05;39.73
34374;BME280;20637;55.770;37.592;2023-04-25T07:15:41;99405.97;;;18.15;39.95
34374;BME280;20637;55.770;37.592;2023-04-25T07:18:07;99405.50;;;18.25;39.73
34374;BME280;20637;55.770;37.592;2023-04-25T07:20:33;99404.22;;;18.27;39.63
34374;BME280;20637;55.770;37.592;2023-04-25T07:22:58;99403.53;;;18.32;39.61
34374;BME280;20637;55.770;37.592;2023-04-25T07:25:24;99405.59;;;18.36;39.51
34374;BME280;20637;55.770;37.592;2023-04-25T07:27:50;99404.50;;;18.44;38.89
34374;BME280;20637;55.770;37.592;2023-04-25T07:30:17;99402.97;;;18.48;38.63
34374;BME280;20637;55.770;37.592;2023-04-25T07:32:43;99399.38;;;18.54;38.40
34374;BME280;20637;55.770;37.592;2023-04-25T07:35:09;99397.84;;;18.58;38.43
34374;BME280;20637;55.770;37.592;2023-04-25T07:37:35;99401.59;;;18.64;38.30
34374;BME280;20637;55.770;37.592;2023-04-25T07:40:10;99398.41;;;18.67;38.38
34374;BME280;20637;55.770;37.592;2023-04-25T07:42:40;99397.56;;;18.66;38.74
34374;BME280;20637;55.770;37.592;2023-04-25T07:45:08;99396.69;;;18.72;38.61
34374;BME280;20637;55.770;37.592;2023-04-25T07:47:34;99396.75;;;18.84;38.41
34374;BME280;20637;55.770;37.592;2023-04-25T07:50:01;99399.34;;;18.97;38.37
34374;BME280;20637;55.770;37.592;2023-04-25T07:52:28;99391.97;;;18.97;38.35
34374;BME280;20637;55.770;37.592;2023-04-25T07:55:01;99388.75;;;19.00;38.53
34374;BME280;20637;55.770;37.592;2023-04-25T07:57:39;99396.66;;;19.09;38.31
34374;BME280;20637;55.770;37.592;2023-04-25T08:00:05;99391.13;;;19.15;38.48
34374;BME280;20637;55.770;37.592;2023-04-25T08:02:39;99388.41;;;19.15;38.36
34374;BME280;20637;55.770;37.592;2023-04-25T08:05:06;99390.72;;;19.12;38.43
34374;BME280;20637;55.770;37.592;2023-04-25T08:07:34;99394.19;;;19.07;38.33
34374;BME280;20637;55.770;37.592;2023-04-25T08:10:03;99389.00;;;18.99;38.34
34374;BME280;20637;55.770;37.592;2023-04-25T08:12:32;99380.19;;;18.97;38.57
34374;BME280;20637;55.770;37.592;2023-04-25T08:14:58;99394.25;;;19.00;38.35
34374;BME280;20637;55.770;37.592;2023-04-25T08:17:28;99391.44;;;19.07;37.97
34374;BME280;20637;55.770;37.592;2023-04-25T08:19:54;99391.72;;;19.17;37.85
34374;BME280;20637;55.770;37.592;2023-04-25T08:22:29;99392.63;;;19.29;37.94
34374;BME280;20637;55.770;37.592;2023-04-25T08:25:15;99392.31;;;19.56;37.24
34374;BME280;20637;55.770;37.592;2023-04-25T08:27:41;99395.94;;;19.68;36.84
34374;BME280;20637;55.770;37.592;2023-04-25T08:30:08;99385.16;;;19.84;36.86
34374;BME280;20637;55.770;37.592;2023-04-25T08:32:34;99398.78;;;20.03;36.42
34374;BME280;20637;55.770;37.592;2023-04-25T08:35:19;99373.28;;;20.14;36.13
34374;BME280;20637;55.770;37.592;2023-04-25T08:37:45;99369.16;;;20.23;35.99
34374;BME280;20637;55.770;37.592;2023-04-25T08:40:13;99367.59;;;20.27;36.06
34374;BME280;20637;55.770;37.592;2023-04-25T08:42:53;99374.66;;;20.34;36.01
34374;BME280;20637;55.770;37.592;2023-04-25T08:45:20;99370.84;;;20.35;35.88
34374;BME280;20637;55.770;37.592;2023-04-25T08:47:45;99382.16;;;20.39;35.66
34374;BME280;20637;55.770;37.592;2023-04-25T08:50:11;99365.72;;;20.39;35.45
34374;BME280;20637;55.770;37.592;2023-04-25T08:52:39;99362.25;;;20.32;34.96
34374;BME280;20637;55.770;37.592;2023-04-25T08:55:08;99365.22;;;20.19;35.23
34374;BME280;20637;55.770;37.592;2023-04-25T08:57:34;99358.53;;;20.15;35.58
34374;BME280;20637;55.770;37.592;2023-04-25T09:00:01;99366.84;;;20.20;35.60
34374;BME280;20637;55.770;37.592;2023-04-25T09:02:32;99356.78;;;20.32;35.53
34374;BME280;20637;55.770;37.592;2023-04-25T09:04:58;99352.25;;;20.37;35.34
34374;BME280;20637;55.770;37.592;2023-04-25T09:07:24;99360.63;;;20.42;35.26
34374;BME280;20637;55.770;37.592;2023-04-25T09:09:51;99352.13;;;20.56;35.48
34374;BME280;20637;55.770;37.592;2023-04-25T09:12:19;99348.66;;;20.72;35.25
34374;BME280;20637;55.770;37.592;2023-04-25T09:15:06;99347.22;;;20.81;34.83
34374;BME280;20637;55.770;37.592;2023-04-25T09:17:55;99340.78;;;20.75;34.10
34374;BME280;20637;55.770;37.592;2023-04-25T09:20:20;99344.94;;;20.66;33.82
34374;BME280;20637;55.770;37.592;2023-04-25T09:22:46;99339.47;;;20.55;33.99
34374;BME280;20637;55.770;37.592;2023-04-25T09:25:13;99340.69;;;20.47;34.23
34374;BME280;20637;55.770;37.592;2023-04-25T09:27:53;99336.75;;;20.55;34.44
34374;BME280;20637;55.770;37.592;2023-04-25T09:30:30;99334.81;;;20.67;34.32
34374;BME280;20637;55.770;37.592;2023-04-25T09:33:32;99335.16;;;20.82;34.54
34374;BME280;20637;55.770;37.592;2023-04-25T09:39:04;99333.38;;;20.87;34.62
34374;BME280;20637;55.770;37.592;2023-04-25T09:41:41;99331.53;;;20.93;34.53
34374;BME280;20637;55.770;37.592;2023-04-25T09:44:06;99327.00;;;20.99;34.50
34374;BME280;20637;55.770;37.592;2023-04-25T09:46:35;99327.63;;;21.01;34.27
34374;BME280;20637;55.770;37.592;2023-04-25T09:49:06;99332.47;;;21.10;34.34
34374;BME280;20637;55.770;37.592;2023-04-25T09:51:36;99315.41;;;21.20;34.27
34374;BME280;20637;55.770;37.592;2023-04-25T09:54:04;99314.41;;;21.26;34.27
34374;BME280;20637;55.770;37.592;2023-04-25T09:56:41;99299.81;;;21.37;34.03
34374;BME280;20637;55.770;37.592;2023-04-25T09:59:07;99317.50;;;21.29;33.83
34374;BME280;20637;55.770;37.592;2023-04-25T10:01:34;99313.75;;;21.19;33.74
34374;BME280;20637;55.770;37.592;2023-04-25T10:04:19;99318.28;;;21.02;33.67
34374;BME280;20637;55.770;37.592;2023-04-25T10:07:01;99307.63;;;20.77;33.83
34374;BME280;20637;55.770;37.592;2023-04-25T10:09:26;99315.41;;;20.68;34.23
34374;BME280;20637;55.770;37.592;2023-04-25T10:11:56;99299.88;;;20.74;34.26
34374;BME280;20637;55.770;37.592;2023-04-25T10:14:23;99301.50;;;20.86;34.12
34374;BME280;20637;55.770;37.592;2023-04-25T10:16:49;99302.94;;;21.01;33.96
34374;BME280;20637;55.770;37.592;2023-04-25T10:19:19;99293.47;;;21.08;33.91
34374;BME280;20637;55.770;37.592;2023-04-25T10:22:04;99292.97;;;21.23;33.81
34374;BME280;20637;55.770;37.592;2023-04-25T10:24:31;99290.94;;;21.47;33.54
34374;BME280;20637;55.770;37.592;2023-04-25T10:26:57;99287.78;;;21.55;33.52
34374;BME280;20637;55.770;37.592;2023-04-25T10:29:26;99281.47;;;21.54;33.31
34374;BME280;20637;55.770;37.592;2023-04-25T10:31:52;99289.38;;;21.51;33.20
34374;BME280;20637;55.770;37.592;2023-04-25T10:34:17;99286.84;;;21.49;32.99
34374;BME280;20637;55.770;37.592;2023-04-25T10:36:44;99281.94;;;21.51;32.48
34374;BME280;20637;55.770;37.592;2023-04-25T10:39:14;99276.63;;;21.45;32.58
34374;BME280;20637;55.770;37.592;2023-04-25T10:41:47;99277.13;;;21.42;32.57
34374;BME280;20637;55.770;37.592;2023-04-25T10:44:15;99276.50;;;21.39;31.92
34374;BME280;20637;55.770;37.592;2023-04-25T10:46:41;99268.03;;;21.41;31.82
34374;BME280;20637;55.770;37.592;2023-04-25T10:49:08;99262.88;;;21.45;31.90
34374;BME280;20637;55.770;37.592;2023-04-25T10:51:34;99249.25;;;21.50;31.21
34374;BME280;20637;55.770;37.592;2023-04-25T10:54:06;99259.22;;;21.56;31.16
34374;BME280;20637;55.770;37.592;2023-04-25T10:56:41;99248.34;;;21.61;31.16
34374;BME280;20637;55.770;37.592;2023-04-25T10:59:18;99256.50;;;21.72;31.41
34374;BME280;20637;55.770;37.592;2023-04-25T11:01:48;99250.16;;;21.72;31.66
34374;BME280;20637;55.770;37.592;2023-04-25T11:04:29;99250.69;;;21.69;31.42
34374;BME280;20637;55.770;37.592;2023-04-25T11:09:20;99239.50;;;21.59;30.81
34374;BME280;20637;55.770;37.592;2023-04-25T11:11:55;99238.78;;;21.47;30.93
34374;BME280;20637;55.770;37.592;2023-04-25T11:14:20;99243.00;;;21.37;30.97
34374;BME280;20637;55.770;37.592;2023-04-25T11:16:47;99229.09;;;21.27;31.11
34374;BME280;20637;55.770;37.592;2023-04-25T11:19:12;99226.41;;;21.32;31.46
34374;BME280;20637;55.770;37.592;2023-04-25T11:21:37;99232.09;;;21.43;31.27
34374;BME280;20637;55.770;37.592;2023-04-25T11:24:03;99226.63;;;21.43;31.47
34374;BME280;20637;55.770;37.592;2023-04-25T11:26:29;99214.53;;;21.27;31.57
34374;BME280;20637;55.770;37.592;2023-04-25T11:28:58;99207.59;;;21.24;31.89
34374;BME280;20637;55.770;37.592;2023-04-25T11:31:25;99211.84;;;21.32;31.96
34374;BME280;20637;55.770;37.592;2023-04-25T11:33:52;99213.38;;;21.39;31.84
34374;BME280;20637;55.770;37.592;2023-04-25T11:36:18;99218.84;;;21.39;31.93
34374;BME280;20637;55.770;37.592;2023-04-25T11:38:44;99205.22;;;21.45;31.92
34374;BME280;20637;55.770;37.592;2023-04-25T11:41:09;99202.25;;;21.46;31.89
34374;BME280;20637;55.770;37.592;2023-04-25T11:43:35;99203.88;;;21.47;31.44
34374;BME280;20637;55.770;37.592;2023-04-25T11:46:00;99197.25;;;21.43;31.76
34374;BME280;20637;55.770;37.592;2023-04-25T11:48:26;99201.06;;;21.42;31.46
34374;BME280;20637;55.770;37.592;2023-04-25T11:50:51;99196.81;;;21.34;31.79
34374;BME280;20637;55.770;37.592;2023-04-25T11:53:17;99187.31;;;21.25;32.01
34374;BME280;20637;55.770;37.592;2023-04-25T11:55:43;99189.06;;;21.15;32.25
34374;BME280;20637;55.770;37.592;2023-04-25T11:58:08;99184.19;;;21.05;32.66
34374;BME280;20637;55.770;37.592;2023-04-25T12:00:33;99180.75;;;20.98;32.78
34374;BME280;20637;55.770;37.592;2023-04-25T12:02:59;99182.94;;;20.96;32.88
34374;BME280;20637;55.770;37.592;2023-04-25T12:05:29;99184.00;;;20.95;32.81
34374;BME280;20637;55.770;37.592;2023-04-25T12:07:55;99169.44;;;20.95;33.00
34374;BME280;20637;55.770;37.592;2023-04-25T12:10:21;99174.09;;;20.94;33.34
34374;BME280;20637;55.770;37.592;2023-04-25T12:12:47;99171.75;;;20.86;33.33
34374;BME280;20637;55.770;37.592;2023-04-25T12:15:14;99165.91;;;20.82;33.44
34374;BME280;20637;55.770;37.592;2023-04-25T12:17:41;99160.94;;;20.79;33.37
34374;BME280;20637;55.770;37.592;2023-04-25T12:20:10;99162.00;;;20.78;33.64
34374;BME280;20637;55.770;37.592;2023-04-25T12:22:36;99154.59;;;20.79;33.49
34374;BME280;20637;55.770;37.592;2023-04-25T12:25:02;99148.69;;;20.70;33.71
34374;BME280;20637;55.770;37.592;2023-04-25T12:27:30;99145.75;;;20.60;33.95
34374;BME280;20637;55.770;37.592;2023-04-25T12:29:56;99147.56;;;20.55;34.01
34374;BME280;20637;55.770;37.592;2023-04-25T12:32:22;99144.47;;;20.51;33.94
34374;BME280;20637;55.770;37.592;2023-04-25T12:34:47;99134.25;;;20.47;34.00
34374;BME280;20637;55.770;37.592;2023-04-25T12:37:13;99131.16;;;20.43;34.09
34374;BME280;20637;55.770;37.592;2023-04-25T12:39:38;99131.03;;;20.50;34.08
34374;BME280;20637;55.770;37.592;2023-04-25T12:42:04;99120.25;;;20.60;33.98
34374;BME280;20637;55.770;37.592;2023-04-25T12:44:29;99113.88;;;20.71;33.95
34374;BME280;20637;55.770;37.592;2023-04-25T12:46:55;99118.13;;;20.78;33.70
34374;BME280;20637;55.770;37.592;2023-04-25T12:49:21;99116.88;;;20.86;33.75
34374;BME280;20637;55.770;37.592;2023-04-25T12:51:47;99112.84;;;20.88;33.79
34374;BME280;20637;55.770;37.592;2023-04-25T12:54:13;99099.84;;;20.84;33.89
34374;BME280;20637;55.770;37.592;2023-04-25T12:56:39;99098.69;;;20.80;33.77
34374;BME280;20637;55.770;37.592;2023-04-25T12:59:05;99091.53;;;20.79;33.83
34374;BME280;20637;55.770;37.592;2023-04-25T13:01:31;99095.94;;;20.80;33.82
34374;BME280;20637;55.770;37.592;2023-04-25T13:03:57;99092.28;;;20.91;33.90
34374;BME280;20637;55.770;37.592;2023-04-25T13:06:22;99087.38;;;20.93;33.81